Pagrindinis puslapis
METAR-TAF:

METAR-TAF

Oro uostai :

Saint-Pierre, Reunjonas

platuma: 21-20S, ilguma: 055-29E, Aukštis: 52 m

Dabartinis oras

Ataskaita buvo paskelbta 36 minutes, ne 12:30 UTC
Vėjas 5 kt iš Šiaurės Vakarų
Temperatūra 25°C
Drėgmė 79%
Slėgis 1012 hPa
Matomumas 10 km arba daugiau
Mažai debesys ne aukštis 3600 ft
Apsiniaukę ne aukštis 14000 ft

METAR: FMEP 151230Z AUTO 32005KT 9999 FEW036 OVC140 25/21 Q1012 TEMPO 4000 SHRA

Laikas: 17:06 (13:06 UTC)

Prognozė

Ataskaita buvo paskelbta 2 valandos ir 6 minutes, ne 11:00 UTC
Prognozė galioja nuo 15 metu 12 UTC su 15 metu 21 UTC
Vėjas 5 kt iš Vakarų
Matomumas 10 km arba daugiau
Išsisklaidę debesys ne aukštis 2500 ft
Su prošvaistėmis ne aukštis 12000 ft
Laikinai
nuo 15 metu 12 UTC su 15 metu 18 UTC
Matomumas: 4000 m
lietus
Tapsmas
nuo 15 metu 19 UTC su 15 metu 21 UTC
Vėjas 3 kt nuo kintamojo kryptimis

TAF: FMEP 151100Z 1512/1521 28005KT 9999 SCT025 BKN120 TEMPO 1512/1518 4000 SHRA BECMG 1519/1521 VRB03KT

Orai ataskaitas ir orų prognozės (METAR, TAF).

turimą stotys yra geltonos ir raudonos taškus žemėlapyje.

Perkelti pele per norėdami pamatyti stoties vardą.

Tada spustelėkite, norėdami matyti oro stebėjimo ir prognozės.

Norėdami pakeisti žemėlapį: spustelėkite ant žalios mygtukų su juodo kryžiaus žemyn,; žalią mygtuką su brūkšneliu, jei norite nutolinti; arba žalių rodyklių gretimoms žemėlapius.


METAR-TAF: